sensor_id;sensor_type;location;lat;lon;timestamp;pressure;altitude;pressure_sealevel;temperature;humidity
10881;BME280;5493;48.884;8.338;2023-04-20T00:01:27;100260.13;;;6.22;100.00
10881;BME280;5493;48.884;8.338;2023-04-20T00:03:53;100265.41;;;5.94;100.00
10881;BME280;5493;48.884;8.338;2023-04-20T00:06:20;100252.50;;;5.83;100.00
10881;BME280;5493;48.884;8.338;2023-04-20T00:08:48;100256.03;;;5.69;100.00
10881;BME280;5493;48.884;8.338;2023-04-20T00:11:14;100243.44;;;5.84;100.00
10881;BME280;5493;48.884;8.338;2023-04-20T00:13:41;100248.28;;;5.74;100.00
10881;BME280;5493;48.884;8.338;2023-04-20T00:16:07;100244.44;;;5.62;100.00
10881;BME280;5493;48.884;8.338;2023-04-20T00:18:34;100239.81;;;5.70;100.00
10881;BME280;5493;48.884;8.338;2023-04-20T00:21:00;100233.00;;;5.68;100.00
10881;BME280;5493;48.884;8.338;2023-04-20T00:23:27;100231.34;;;5.67;100.00
10881;BME280;5493;48.884;8.338;2023-04-20T00:25:55;100234.97;;;5.59;100.00
10881;BME280;5493;48.884;8.338;2023-04-20T00:28:21;100222.16;;;5.55;100.00
10881;BME280;5493;48.884;8.338;2023-04-20T00:30:48;100221.53;;;5.53;100.00
10881;BME280;5493;48.884;8.338;2023-04-20T00:33:14;100220.84;;;5.51;100.00
10881;BME280;5493;48.884;8.338;2023-04-20T00:35:41;100216.28;;;5.44;100.00
10881;BME280;5493;48.884;8.338;2023-04-20T00:38:07;100208.09;;;5.46;100.00
10881;BME280;5493;48.884;8.338;2023-04-20T00:40:34;100205.31;;;5.39;100.00
10881;BME280;5493;48.884;8.338;2023-04-20T00:43:09;100202.75;;;5.31;100.00
10881;BME280;5493;48.884;8.338;2023-04-20T00:45:36;100198.59;;;5.29;100.00
10881;BME280;5493;48.884;8.338;2023-04-20T00:48:03;100192.31;;;5.36;100.00
10881;BME280;5493;48.884;8.338;2023-04-20T00:50:29;100194.84;;;5.23;100.00
10881;BME280;5493;48.884;8.338;2023-04-20T00:52:56;100187.59;;;5.17;100.00
10881;BME280;5493;48.884;8.338;2023-04-20T00:55:23;100188.59;;;5.16;100.00
10881;BME280;5493;48.884;8.338;2023-04-20T00:57:50;100184.34;;;5.22;100.00
10881;BME280;5493;48.884;8.338;2023-04-20T01:00:19;100188.22;;;5.19;100.00
10881;BME280;5493;48.884;8.338;2023-04-20T01:02:45;100182.97;;;5.11;100.00
10881;BME280;5493;48.884;8.338;2023-04-20T01:05:12;100179.84;;;5.08;100.00
10881;BME280;5493;48.884;8.338;2023-04-20T01:07:39;100178.56;;;5.04;100.00
10881;BME280;5493;48.884;8.338;2023-04-20T01:10:07;100170.00;;;5.08;100.00
10881;BME280;5493;48.884;8.338;2023-04-20T01:12:33;100169.16;;;4.93;100.00
10881;BME280;5493;48.884;8.338;2023-04-20T01:15:01;100164.66;;;4.93;100.00
10881;BME280;5493;48.884;8.338;2023-04-20T01:17:29;100164.22;;;4.90;100.00
10881;BME280;5493;48.884;8.338;2023-04-20T01:19:55;100157.47;;;5.09;100.00
10881;BME280;5493;48.884;8.338;2023-04-20T01:22:26;100150.75;;;4.98;100.00
10881;BME280;5493;48.884;8.338;2023-04-20T01:24:52;100141.88;;;5.12;100.00
10881;BME280;5493;48.884;8.338;2023-04-20T01:27:19;100148.34;;;5.03;100.00
10881;BME280;5493;48.884;8.338;2023-04-20T01:29:45;100141.94;;;4.83;100.00
10881;BME280;5493;48.884;8.338;2023-04-20T01:32:12;100142.38;;;4.86;100.00
10881;BME280;5493;48.884;8.338;2023-04-20T01:34:39;100138.63;;;4.81;100.00
10881;BME280;5493;48.884;8.338;2023-04-20T01:37:06;100133.75;;;4.70;100.00
10881;BME280;5493;48.884;8.338;2023-04-20T01:39:34;100126.81;;;4.90;100.00
10881;BME280;5493;48.884;8.338;2023-04-20T01:42:01;100123.06;;;4.84;100.00
10881;BME280;5493;48.884;8.338;2023-04-20T01:44:27;100130.03;;;4.71;100.00
10881;BME280;5493;48.884;8.338;2023-04-20T01:46:54;100122.41;;;4.68;100.00
10881;BME280;5493;48.884;8.338;2023-04-20T01:49:20;100127.28;;;4.64;100.00
10881;BME280;5493;48.884;8.338;2023-04-20T01:51:47;100120.28;;;4.63;100.00
10881;BME280;5493;48.884;8.338;2023-04-20T01:54:13;100117.91;;;4.68;100.00
10881;BME280;5493;48.884;8.338;2023-04-20T01:56:41;100119.13;;;4.51;100.00
10881;BME280;5493;48.884;8.338;2023-04-20T01:59:11;100116.53;;;4.58;100.00
10881;BME280;5493;48.884;8.338;2023-04-20T02:01:38;100115.06;;;4.55;100.00
10881;BME280;5493;48.884;8.338;2023-04-20T02:04:04;100109.06;;;4.53;100.00
10881;BME280;5493;48.884;8.338;2023-04-20T02:06:31;100108.81;;;4.48;100.00
10881;BME280;5493;48.884;8.338;2023-04-20T02:08:57;100108.91;;;4.55;100.00
10881;BME280;5493;48.884;8.338;2023-04-20T02:11:24;100116.53;;;4.58;100.00
10881;BME280;5493;48.884;8.338;2023-04-20T02:13:51;100110.81;;;4.46;100.00
10881;BME280;5493;48.884;8.338;2023-04-20T02:16:18;100104.41;;;4.55;100.00
10881;BME280;5493;48.884;8.338;2023-04-20T02:18:46;100092.97;;;4.46;100.00
10881;BME280;5493;48.884;8.338;2023-04-20T02:21:12;100101.06;;;4.38;100.00
10881;BME280;5493;48.884;8.338;2023-04-20T02:23:39;100098.31;;;4.32;100.00
10881;BME280;5493;48.884;8.338;2023-04-20T02:26:05;100093.91;;;4.39;100.00
10881;BME280;5493;48.884;8.338;2023-04-20T02:28:32;100085.25;;;4.37;100.00
10881;BME280;5493;48.884;8.338;2023-04-20T02:31:00;100079.16;;;4.43;100.00
10881;BME280;5493;48.884;8.338;2023-04-20T02:33:26;100084.06;;;4.39;100.00
10881;BME280;5493;48.884;8.338;2023-04-20T02:35:53;100079.00;;;4.44;100.00
10881;BME280;5493;48.884;8.338;2023-04-20T02:38:20;100076.78;;;4.63;100.00
10881;BME280;5493;48.884;8.338;2023-04-20T02:40:46;100065.72;;;4.66;100.00
10881;BME280;5493;48.884;8.338;2023-04-20T02:43:13;100067.44;;;4.73;100.00
10881;BME280;5493;48.884;8.338;2023-04-20T02:45:39;100068.75;;;4.77;100.00
10881;BME280;5493;48.884;8.338;2023-04-20T02:48:07;100063.84;;;4.81;100.00
10881;BME280;5493;48.884;8.338;2023-04-20T02:50:34;100064.19;;;4.78;100.00
10881;BME280;5493;48.884;8.338;2023-04-20T02:53:02;100053.38;;;4.65;100.00
10881;BME280;5493;48.884;8.338;2023-04-20T02:55:28;100061.00;;;4.68;100.00
10881;BME280;5493;48.884;8.338;2023-04-20T02:57:55;100055.41;;;4.63;100.00
10881;BME280;5493;48.884;8.338;2023-04-20T03:00:22;100051.44;;;4.73;100.00
10881;BME280;5493;48.884;8.338;2023-04-20T03:02:48;100054.16;;;4.80;100.00
10881;BME280;5493;48.884;8.338;2023-04-20T03:05:16;100049.47;;;4.82;100.00
10881;BME280;5493;48.884;8.338;2023-04-20T03:07:43;100050.06;;;4.99;100.00
10881;BME280;5493;48.884;8.338;2023-04-20T03:10:10;100044.19;;;4.88;100.00
10881;BME280;5493;48.884;8.338;2023-04-20T03:12:37;100049.69;;;5.02;100.00
10881;BME280;5493;48.884;8.338;2023-04-20T03:15:04;100046.81;;;5.03;100.00
10881;BME280;5493;48.884;8.338;2023-04-20T03:17:31;100045.69;;;4.91;100.00
10881;BME280;5493;48.884;8.338;2023-04-20T03:19:57;100036.09;;;4.82;100.00
10881;BME280;5493;48.884;8.338;2023-04-20T03:22:25;100036.38;;;4.87;100.00
10881;BME280;5493;48.884;8.338;2023-04-20T03:24:52;100038.69;;;4.75;100.00
10881;BME280;5493;48.884;8.338;2023-04-20T03:27:18;100028.91;;;4.82;100.00
10881;BME280;5493;48.884;8.338;2023-04-20T03:29:45;100024.38;;;4.97;100.00
10881;BME280;5493;48.884;8.338;2023-04-20T03:32:13;100020.22;;;4.74;100.00
10881;BME280;5493;48.884;8.338;2023-04-20T03:34:39;100027.31;;;5.03;100.00
10881;BME280;5493;48.884;8.338;2023-04-20T03:37:06;100028.69;;;4.99;100.00
10881;BME280;5493;48.884;8.338;2023-04-20T03:39:33;100028.56;;;5.07;100.00
10881;BME280;5493;48.884;8.338;2023-04-20T03:42:00;100032.72;;;5.09;100.00
10881;BME280;5493;48.884;8.338;2023-04-20T03:44:27;100031.56;;;5.18;100.00
10881;BME280;5493;48.884;8.338;2023-04-20T03:46:54;100032.88;;;5.29;100.00
10881;BME280;5493;48.884;8.338;2023-04-20T03:49:22;100034.09;;;5.26;100.00
10881;BME280;5493;48.884;8.338;2023-04-20T03:51:49;100029.38;;;4.86;100.00
10881;BME280;5493;48.884;8.338;2023-04-20T03:54:15;100029.25;;;4.73;100.00
10881;BME280;5493;48.884;8.338;2023-04-20T03:56:43;100024.38;;;4.62;100.00
10881;BME280;5493;48.884;8.338;2023-04-20T03:59:10;100026.03;;;4.63;100.00
10881;BME280;5493;48.884;8.338;2023-04-20T04:01:37;100024.19;;;4.63;100.00
10881;BME280;5493;48.884;8.338;2023-04-20T04:04:03;100025.72;;;4.72;100.00
10881;BME280;5493;48.884;8.338;2023-04-20T04:06:30;100027.09;;;4.83;100.00
10881;BME280;5493;48.884;8.338;2023-04-20T04:08:57;100025.13;;;4.91;100.00
10881;BME280;5493;48.884;8.338;2023-04-20T04:11:23;100022.72;;;5.18;100.00
10881;BME280;5493;48.884;8.338;2023-04-20T04:13:56;100025.03;;;5.21;100.00
10881;BME280;5493;48.884;8.338;2023-04-20T04:16:23;100025.25;;;5.05;100.00
10881;BME280;5493;48.884;8.338;2023-04-20T04:18:50;100022.69;;;4.75;100.00
10881;BME280;5493;48.884;8.338;2023-04-20T04:21:16;100024.31;;;4.91;100.00
10881;BME280;5493;48.884;8.338;2023-04-20T04:23:43;100023.44;;;4.69;100.00
10881;BME280;5493;48.884;8.338;2023-04-20T04:26:09;100024.00;;;4.65;100.00
10881;BME280;5493;48.884;8.338;2023-04-20T04:28:37;100020.28;;;4.44;100.00
10881;BME280;5493;48.884;8.338;2023-04-20T04:31:06;100026.56;;;4.73;100.00
10881;BME280;5493;48.884;8.338;2023-04-20T04:33:32;100024.25;;;4.84;100.00
10881;BME280;5493;48.884;8.338;2023-04-20T04:35:59;100028.84;;;4.76;100.00
10881;BME280;5493;48.884;8.338;2023-04-20T04:38:26;100030.72;;;4.61;100.00
10881;BME280;5493;48.884;8.338;2023-04-20T04:40:53;100033.31;;;4.54;100.00
10881;BME280;5493;48.884;8.338;2023-04-20T04:43:20;100026.06;;;4.84;100.00
10881;BME280;5493;48.884;8.338;2023-04-20T04:45:48;100032.53;;;4.75;100.00
10881;BME280;5493;48.884;8.338;2023-04-20T04:48:16;100035.09;;;4.83;100.00
10881;BME280;5493;48.884;8.338;2023-04-20T04:50:43;100034.56;;;4.73;100.00
10881;BME280;5493;48.884;8.338;2023-04-20T04:53:10;100030.06;;;4.73;100.00
10881;BME280;5493;48.884;8.338;2023-04-20T04:55:36;100023.81;;;4.66;100.00
10881;BME280;5493;48.884;8.338;2023-04-20T04:58:03;100020.69;;;4.63;100.00
10881;BME280;5493;48.884;8.338;2023-04-20T05:00:29;100021.41;;;4.71;100.00
10881;BME280;5493;48.884;8.338;2023-04-20T05:02:56;100025.94;;;4.92;100.00
10881;BME280;5493;48.884;8.338;2023-04-20T05:05:24;100027.81;;;4.91;100.00
10881;BME280;5493;48.884;8.338;2023-04-20T05:07:51;100032.81;;;4.80;100.00
10881;BME280;5493;48.884;8.338;2023-04-20T05:10:17;100025.13;;;5.13;100.00
10881;BME280;5493;48.884;8.338;2023-04-20T05:12:44;100028.31;;;5.02;100.00
10881;BME280;5493;48.884;8.338;2023-04-20T05:15:11;100022.53;;;4.98;100.00
10881;BME280;5493;48.884;8.338;2023-04-20T05:17:38;100032.69;;;4.88;100.00
10881;BME280;5493;48.884;8.338;2023-04-20T05:20:06;100021.91;;;4.81;100.00
10881;BME280;5493;48.884;8.338;2023-04-20T05:22:36;100022.63;;;4.90;100.00
10881;BME280;5493;48.884;8.338;2023-04-20T05:25:03;100020.81;;;4.90;100.00
10881;BME280;5493;48.884;8.338;2023-04-20T05:27:31;100019.34;;;5.09;100.00
10881;BME280;5493;48.884;8.338;2023-04-20T05:29:58;100012.00;;;5.18;100.00
10881;BME280;5493;48.884;8.338;2023-04-20T05:32:24;100018.56;;;5.36;100.00
10881;BME280;5493;48.884;8.338;2023-04-20T05:34:50;100016.19;;;5.48;100.00
10881;BME280;5493;48.884;8.338;2023-04-20T05:37:17;100016.78;;;5.43;100.00
10881;BME280;5493;48.884;8.338;2023-04-20T05:39:45;100016.47;;;5.53;100.00
10881;BME280;5493;48.884;8.338;2023-04-20T05:42:11;100016.03;;;5.28;100.00
10881;BME280;5493;48.884;8.338;2023-04-20T05:44:38;100012.56;;;5.56;100.00
10881;BME280;5493;48.884;8.338;2023-04-20T05:47:05;100006.38;;;5.83;100.00
10881;BME280;5493;48.884;8.338;2023-04-20T05:49:33;100007.13;;;5.70;100.00
10881;BME280;5493;48.884;8.338;2023-04-20T05:51:59;100005.88;;;5.94;100.00
10881;BME280;5493;48.884;8.338;2023-04-20T05:54:26;100006.03;;;5.86;100.00
10881;BME280;5493;48.884;8.338;2023-04-20T05:56:54;100003.94;;;6.16;100.00
10881;BME280;5493;48.884;8.338;2023-04-20T05:59:21;99997.41;;;6.25;100.00
10881;BME280;5493;48.884;8.338;2023-04-20T06:01:48;100004.81;;;6.29;100.00
10881;BME280;5493;48.884;8.338;2023-04-20T06:04:14;100003.63;;;6.38;100.00
10881;BME280;5493;48.884;8.338;2023-04-20T06:06:41;99998.56;;;6.57;100.00
10881;BME280;5493;48.884;8.338;2023-04-20T06:09:07;99998.53;;;6.50;100.00
10881;BME280;5493;48.884;8.338;2023-04-20T06:11:34;100001.25;;;6.57;100.00
10881;BME280;5493;48.884;8.338;2023-04-20T06:14:02;100003.34;;;6.68;100.00
10881;BME280;5493;48.884;8.338;2023-04-20T06:16:29;99996.63;;;6.98;100.00
10881;BME280;5493;48.884;8.338;2023-04-20T06:18:55;99990.03;;;7.07;100.00
10881;BME280;5493;48.884;8.338;2023-04-20T06:21:22;99991.28;;;7.05;100.00
10881;BME280;5493;48.884;8.338;2023-04-20T06:23:51;99987.34;;;7.01;100.00
10881;BME280;5493;48.884;8.338;2023-04-20T06:26:17;99984.81;;;8.04;100.00
10881;BME280;5493;48.884;8.338;2023-04-20T06:28:44;99987.34;;;8.63;100.00
10881;BME280;5493;48.884;8.338;2023-04-20T06:31:13;99983.19;;;8.99;100.00
10881;BME280;5493;48.884;8.338;2023-04-20T06:33:40;99980.72;;;9.96;100.00
10881;BME280;5493;48.884;8.338;2023-04-20T06:36:07;99984.69;;;10.84;100.00
10881;BME280;5493;48.884;8.338;2023-04-20T06:38:33;99980.00;;;11.33;100.00
10881;BME280;5493;48.884;8.338;2023-04-20T06:41:00;99978.75;;;11.59;100.00
10881;BME280;5493;48.884;8.338;2023-04-20T06:43:27;99986.13;;;11.52;100.00
10881;BME280;5493;48.884;8.338;2023-04-20T06:45:54;99984.31;;;11.99;100.00
10881;BME280;5493;48.884;8.338;2023-04-20T06:48:21;99980.06;;;12.66;100.00
10881;BME280;5493;48.884;8.338;2023-04-20T06:50:48;99978.16;;;12.66;100.00
10881;BME280;5493;48.884;8.338;2023-04-20T06:53:15;99973.53;;;12.50;100.00
10881;BME280;5493;48.884;8.338;2023-04-20T06:55:42;99984.31;;;12.90;100.00
10881;BME280;5493;48.884;8.338;2023-04-20T06:58:08;99974.22;;;12.86;100.00
10881;BME280;5493;48.884;8.338;2023-04-20T07:00:35;99982.94;;;13.32;100.00
10881;BME280;5493;48.884;8.338;2023-04-20T07:03:01;99980.72;;;13.96;100.00
10881;BME280;5493;48.884;8.338;2023-04-20T07:05:29;99971.03;;;13.17;100.00
10881;BME280;5493;48.884;8.338;2023-04-20T07:07:55;99973.31;;;14.47;100.00
10881;BME280;5493;48.884;8.338;2023-04-20T07:10:22;99971.06;;;15.14;100.00
10881;BME280;5493;48.884;8.338;2023-04-20T07:12:49;99960.44;;;15.12;100.00
10881;BME280;5493;48.884;8.338;2023-04-20T07:15:15;99957.44;;;14.00;100.00
10881;BME280;5493;48.884;8.338;2023-04-20T07:17:42;99972.09;;;14.38;98.09
10881;BME280;5493;48.884;8.338;2023-04-20T07:20:08;99967.91;;;14.73;100.00
10881;BME280;5493;48.884;8.338;2023-04-20T07:22:37;99961.78;;;15.73;95.79
10881;BME280;5493;48.884;8.338;2023-04-20T07:25:05;99957.19;;;15.42;96.01
10881;BME280;5493;48.884;8.338;2023-04-20T07:27:33;99954.59;;;15.25;96.33
10881;BME280;5493;48.884;8.338;2023-04-20T07:30:00;99960.66;;;15.06;97.22
10881;BME280;5493;48.884;8.338;2023-04-20T07:32:27;99958.13;;;15.26;96.90
10881;BME280;5493;48.884;8.338;2023-04-20T07:34:53;99953.38;;;15.43;89.96
10881;BME280;5493;48.884;8.338;2023-04-20T07:37:20;99946.66;;;15.83;97.67
10881;BME280;5493;48.884;8.338;2023-04-20T07:39:50;99952.03;;;15.46;93.87
10881;BME280;5493;48.884;8.338;2023-04-20T07:42:16;99948.28;;;15.20;95.65
10881;BME280;5493;48.884;8.338;2023-04-20T07:44:43;99943.00;;;15.35;95.32
10881;BME280;5493;48.884;8.338;2023-04-20T07:47:09;99941.53;;;15.22;98.89
10881;BME280;5493;48.884;8.338;2023-04-20T07:49:36;99945.44;;;16.10;94.40
10881;BME280;5493;48.884;8.338;2023-04-20T07:52:05;99926.16;;;16.74;92.88
10881;BME280;5493;48.884;8.338;2023-04-20T07:54:31;99941.16;;;15.77;88.57
10881;BME280;5493;48.884;8.338;2023-04-20T07:56:59;99939.88;;;16.37;89.53
10881;BME280;5493;48.884;8.338;2023-04-20T07:59:27;99938.59;;;15.98;92.47
10881;BME280;5493;48.884;8.338;2023-04-20T08:01:57;99930.59;;;16.33;90.79
10881;BME280;5493;48.884;8.338;2023-04-20T08:04:24;99933.59;;;15.48;93.56
10881;BME280;5493;48.884;8.338;2023-04-20T08:06:51;99924.94;;;15.93;94.52
10881;BME280;5493;48.884;8.338;2023-04-20T08:09:17;99928.25;;;16.00;90.10
10881;BME280;5493;48.884;8.338;2023-04-20T08:11:44;99927.84;;;15.76;96.08
10881;BME280;5493;48.884;8.338;2023-04-20T08:14:13;99919.50;;;16.50;93.13
10881;BME280;5493;48.884;8.338;2023-04-20T08:16:39;99915.31;;;17.14;94.16
10881;BME280;5493;48.884;8.338;2023-04-20T08:19:06;99919.84;;;16.58;94.15
10881;BME280;5493;48.884;8.338;2023-04-20T08:21:35;99912.50;;;16.69;88.65
10881;BME280;5493;48.884;8.338;2023-04-20T08:24:02;99913.41;;;17.30;91.44
10881;BME280;5493;48.884;8.338;2023-04-20T08:26:29;99913.72;;;16.31;91.51
10881;BME280;5493;48.884;8.338;2023-04-20T08:28:56;99919.09;;;16.21;92.89
10881;BME280;5493;48.884;8.338;2023-04-20T08:31:24;99908.59;;;16.45;99.80
10881;BME280;5493;48.884;8.338;2023-04-20T08:33:50;99915.25;;;16.79;95.13
10881;BME280;5493;48.884;8.338;2023-04-20T08:36:17;99909.22;;;16.00;94.43
10881;BME280;5493;48.884;8.338;2023-04-20T08:38:44;99911.31;;;16.50;94.36
10881;BME280;5493;48.884;8.338;2023-04-20T08:41:10;99898.38;;;16.77;89.19
10881;BME280;5493;48.884;8.338;2023-04-20T08:43:37;99900.50;;;16.65;90.81
10881;BME280;5493;48.884;8.338;2023-04-20T08:46:04;99896.75;;;16.81;87.07
10881;BME280;5493;48.884;8.338;2023-04-20T08:48:36;99897.63;;;16.24;90.41
10881;BME280;5493;48.884;8.338;2023-04-20T08:51:04;99906.88;;;16.18;90.55
10881;BME280;5493;48.884;8.338;2023-04-20T08:53:31;99901.09;;;16.82;88.56
10881;BME280;5493;48.884;8.338;2023-04-20T08:55:58;99912.75;;;16.00;89.64
10881;BME280;5493;48.884;8.338;2023-04-20T08:58:28;99902.25;;;17.21;85.20
10881;BME280;5493;48.884;8.338;2023-04-20T09:00:55;99899.47;;;16.76;87.99
10881;BME280;5493;48.884;8.338;2023-04-20T09:03:32;99900.56;;;16.85;87.33
10881;BME280;5493;48.884;8.338;2023-04-20T09:05:59;99897.88;;;17.15;90.11
10881;BME280;5493;48.884;8.338;2023-04-20T09:08:33;99885.03;;;16.86;83.40
10881;BME280;5493;48.884;8.338;2023-04-20T09:11:00;99892.44;;;17.20;87.53
10881;BME280;5493;48.884;8.338;2023-04-20T09:13:27;99878.50;;;16.87;84.98
10881;BME280;5493;48.884;8.338;2023-04-20T09:15:53;99887.22;;;17.29;86.76
10881;BME280;5493;48.884;8.338;2023-04-20T09:18:20;99886.97;;;17.71;82.88
10881;BME280;5493;48.884;8.338;2023-04-20T09:20:49;99881.25;;;17.02;84.20
10881;BME280;5493;48.884;8.338;2023-04-20T09:23:17;99883.97;;;17.32;84.91
10881;BME280;5493;48.884;8.338;2023-04-20T09:25:49;99879.88;;;16.07;89.17
10881;BME280;5493;48.884;8.338;2023-04-20T09:28:17;99879.88;;;16.89;90.61
10881;BME280;5493;48.884;8.338;2023-04-20T09:30:45;99883.94;;;16.66;85.54
10881;BME280;5493;48.884;8.338;2023-04-20T09:33:12;99877.97;;;17.05;85.13
10881;BME280;5493;48.884;8.338;2023-04-20T09:35:40;99872.78;;;16.83;88.66
10881;BME280;5493;48.884;8.338;2023-04-20T09:38:09;99870.00;;;16.58;87.80
10881;BME280;5493;48.884;8.338;2023-04-20T09:40:36;99868.28;;;15.74;91.48
10881;BME280;5493;48.884;8.338;2023-04-20T09:43:08;99872.84;;;15.27;93.27
10881;BME280;5493;48.884;8.338;2023-04-20T09:45:37;99870.22;;;15.05;94.15
10881;BME280;5493;48.884;8.338;2023-04-20T09:48:05;99878.56;;;15.25;99.39
10881;BME280;5493;48.884;8.338;2023-04-20T09:50:34;99872.25;;;14.88;98.77
10881;BME280;5493;48.884;8.338;2023-04-20T09:53:02;99877.03;;;14.49;99.49
10881;BME280;5493;48.884;8.338;2023-04-20T09:55:31;99859.88;;;14.70;97.85
10881;BME280;5493;48.884;8.338;2023-04-20T09:57:58;99867.72;;;14.67;99.33
10881;BME280;5493;48.884;8.338;2023-04-20T10:00:27;99862.44;;;14.82;100.00
10881;BME280;5493;48.884;8.338;2023-04-20T10:02:54;99875.25;;;13.95;100.00
10881;BME280;5493;48.884;8.338;2023-04-20T10:05:31;99869.16;;;13.27;100.00
10881;BME280;5493;48.884;8.338;2023-04-20T10:07:58;99874.22;;;13.79;100.00
10881;BME280;5493;48.884;8.338;2023-04-20T10:10:25;99876.09;;;13.78;100.00
10881;BME280;5493;48.884;8.338;2023-04-20T10:12:54;99868.16;;;13.72;100.00
10881;BME280;5493;48.884;8.338;2023-04-20T10:15:21;99866.00;;;13.52;100.00
10881;BME280;5493;48.884;8.338;2023-04-20T10:17:49;99870.19;;;13.43;100.00
10881;BME280;5493;48.884;8.338;2023-04-20T10:20:20;99864.78;;;13.60;100.00
10881;BME280;5493;48.884;8.338;2023-04-20T10:22:47;99874.38;;;13.51;100.00
10881;BME280;5493;48.884;8.338;2023-04-20T10:25:16;99864.78;;;13.10;100.00
10881;BME280;5493;48.884;8.338;2023-04-20T10:27:53;99873.56;;;13.17;100.00
10881;BME280;5493;48.884;8.338;2023-04-20T10:30:21;99868.50;;;13.37;100.00
10881;BME280;5493;48.884;8.338;2023-04-20T10:32:49;99871.63;;;13.12;100.00
10881;BME280;5493;48.884;8.338;2023-04-20T10:35:16;99860.47;;;13.64;100.00
10881;BME280;5493;48.884;8.338;2023-04-20T10:37:47;99860.31;;;13.70;100.00
10881;BME280;5493;48.884;8.338;2023-04-20T10:40:14;99869.38;;;13.59;100.00
10881;BME280;5493;48.884;8.338;2023-04-20T10:42:41;99863.16;;;13.09;100.00
10881;BME280;5493;48.884;8.338;2023-04-20T10:45:10;99865.88;;;13.64;100.00
10881;BME280;5493;48.884;8.338;2023-04-20T10:47:37;99859.78;;;13.35;100.00
10881;BME280;5493;48.884;8.338;2023-04-20T10:50:06;99867.03;;;12.84;100.00
10881;BME280;5493;48.884;8.338;2023-04-20T10:52:33;99860.38;;;12.59;100.00
10881;BME280;5493;48.884;8.338;2023-04-20T10:55:00;99856.16;;;12.96;100.00
10881;BME280;5493;48.884;8.338;2023-04-20T10:57:27;99855.88;;;12.64;100.00
10881;BME280;5493;48.884;8.338;2023-04-20T10:59:54;99852.19;;;13.54;100.00
10881;BME280;5493;48.884;8.338;2023-04-20T11:02:22;99848.28;;;13.83;100.00
10881;BME280;5493;48.884;8.338;2023-04-20T11:04:48;99840.13;;;14.05;100.00
10881;BME280;5493;48.884;8.338;2023-04-20T11:07:15;99830.84;;;14.44;100.00
10881;BME280;5493;48.884;8.338;2023-04-20T11:09:42;99839.06;;;14.27;100.00
10881;BME280;5493;48.884;8.338;2023-04-20T11:12:09;99831.06;;;14.16;100.00
10881;BME280;5493;48.884;8.338;2023-04-20T11:14:37;99837.91;;;14.45;100.00
10881;BME280;5493;48.884;8.338;2023-04-20T11:17:04;99832.19;;;13.55;100.00
10881;BME280;5493;48.884;8.338;2023-04-20T11:19:34;99826.56;;;14.26;100.00
10881;BME280;5493;48.884;8.338;2023-04-20T11:22:02;99835.78;;;14.04;100.00
10881;BME280;5493;48.884;8.338;2023-04-20T11:24:30;99845.44;;;13.95;100.00
10881;BME280;5493;48.884;8.338;2023-04-20T11:26:58;99822.66;;;14.66;100.00
10881;BME280;5493;48.884;8.338;2023-04-20T11:29:30;99824.06;;;15.05;100.00
10881;BME280;5493;48.884;8.338;2023-04-20T11:31:58;99827.63;;;14.74;100.00
10881;BME280;5493;48.884;8.338;2023-04-20T11:34:24;99827.09;;;14.77;100.00
10881;BME280;5493;48.884;8.338;2023-04-20T11:36:52;99825.38;;;14.66;100.00
10881;BME280;5493;48.884;8.338;2023-04-20T11:39:23;99834.38;;;14.45;100.00
10881;BME280;5493;48.884;8.338;2023-04-20T11:41:50;99822.50;;;14.29;100.00
10881;BME280;5493;48.884;8.338;2023-04-20T11:44:17;99827.34;;;14.00;100.00
10881;BME280;5493;48.884;8.338;2023-04-20T11:46:45;99820.44;;;13.88;100.00
10881;BME280;5493;48.884;8.338;2023-04-20T11:49:13;99824.19;;;14.08;100.00
10881;BME280;5493;48.884;8.338;2023-04-20T11:51:40;99816.59;;;14.32;100.00
10881;BME280;5493;48.884;8.338;2023-04-20T11:54:08;99818.25;;;14.60;100.00
10881;BME280;5493;48.884;8.338;2023-04-20T11:56:35;99815.25;;;14.56;100.00
10881;BME280;5493;48.884;8.338;2023-04-20T11:59:02;99813.97;;;14.64;100.00
10881;BME280;5493;48.884;8.338;2023-04-20T12:01:29;99820.59;;;14.78;100.00
10881;BME280;5493;48.884;8.338;2023-04-20T12:03:55;99816.69;;;14.64;100.00
10881;BME280;5493;48.884;8.338;2023-04-20T12:06:21;99816.72;;;14.42;100.00
10881;BME280;5493;48.884;8.338;2023-04-20T12:08:48;99805.50;;;14.92;100.00
10881;BME280;5493;48.884;8.338;2023-04-20T12:11:16;99803.22;;;15.16;100.00
10881;BME280;5493;48.884;8.338;2023-04-20T12:13:42;99809.41;;;14.43;100.00
10881;BME280;5493;48.884;8.338;2023-04-20T12:16:09;99809.22;;;14.81;100.00
10881;BME280;5493;48.884;8.338;2023-04-20T12:18:35;99810.56;;;14.52;100.00
10881;BME280;5493;48.884;8.338;2023-04-20T12:21:02;99816.44;;;14.17;100.00
10881;BME280;5493;48.884;8.338;2023-04-20T12:23:29;99808.94;;;14.29;100.00
10881;BME280;5493;48.884;8.338;2023-04-20T12:25:55;99811.59;;;13.97;100.00
10881;BME280;5493;48.884;8.338;2023-04-20T12:28:23;99812.53;;;14.08;100.00
10881;BME280;5493;48.884;8.338;2023-04-20T12:30:50;99815.41;;;13.96;100.00
10881;BME280;5493;48.884;8.338;2023-04-20T12:33:16;99813.75;;;14.22;100.00
10881;BME280;5493;48.884;8.338;2023-04-20T12:35:42;99817.81;;;13.54;100.00
10881;BME280;5493;48.884;8.338;2023-04-20T12:38:10;99809.34;;;13.29;100.00
10881;BME280;5493;48.884;8.338;2023-04-20T12:40:36;99806.03;;;13.44;100.00
10881;BME280;5493;48.884;8.338;2023-04-20T12:43:03;99800.06;;;13.42;100.00
10881;BME280;5493;48.884;8.338;2023-04-20T12:45:31;99797.13;;;13.26;100.00
10881;BME280;5493;48.884;8.338;2023-04-20T12:47:58;99799.75;;;13.60;100.00
10881;BME280;5493;48.884;8.338;2023-04-20T12:50:24;99798.91;;;13.04;100.00
10881;BME280;5493;48.884;8.338;2023-04-20T12:52:51;99806.22;;;13.37;100.00
10881;BME280;5493;48.884;8.338;2023-04-20T12:55:20;99806.03;;;13.44;100.00
10881;BME280;5493;48.884;8.338;2023-04-20T12:57:46;99808.59;;;13.00;100.00
10881;BME280;5493;48.884;8.338;2023-04-20T13:00:13;99804.16;;;12.77;100.00
10881;BME280;5493;48.884;8.338;2023-04-20T13:02:42;99807.38;;;12.58;100.00